• Join FlightAware (Why Join?)
  • Login
  • US Flag 
06:09AM EDT


 

Airport Tracker/Info


-or-


 

Live Flight TrackerFlight Track Log ✈ USC110 ✈ 12-Jun-2013 ✈ KLCK - KCLT

Flight Track Log - Related Links

Times and Time Zones

All times are in EDT time to prevent confusion due to time zone crossing. See the USC110 flight status page for this flight to view local times or setup timezone preferences in your user account.

Time Position Orientation Groundspeed Altitude Reporting Facility
EDT Latitude Longitude Course Direction KTS MPH feet Rate Location/Type
05:03AM 39.8217 -82.9222 64° Northeast 108 124 1,000  Level Indianapolis Center
05:04AM 39.8294 -82.9014 64° Northeast 119 137 1,600 1,020 Climbing Indianapolis Center
05:05AM 39.7994 -82.8817 153° Southeast 148 170 2,600 840 Climbing Indianapolis Center
05:06AM 39.7647 -82.8669 162° South 145 167 3,400 840 Climbing Indianapolis Center
05:07AM 39.7297 -82.8575 168° South 128 147 4,300 840 Climbing Indianapolis Center
05:08AM 39.6853 -82.8417 165° South 134 154 5,300 840 Climbing Indianapolis Center
05:09AM 39.6478 -82.8303 167° South 137 158 6,200 840 Climbing Indianapolis Center
05:10AM 39.6111 -82.8169 164° South 135 155 7,000 780 Climbing Indianapolis Center
05:11AM 39.5739 -82.8047 166° South 137 158 7,900 780 Climbing Indianapolis Center
05:12AM 39.5350 -82.7931 167° South 141 162 8,600 540 Climbing Indianapolis Center
05:13AM 39.4919 -82.7806 167° South 151 174 9,000 240 Climbing Indianapolis Center
05:14AM 39.4369 -82.7619 165° South 193 222 9,100  Climbing Indianapolis Center
05:15AM 39.3783 -82.7436 166° South 212 244 9,100 -60 Level Indianapolis Center
05:16AM 39.3206 -82.7233 165° South 216 249 9,000  Descending Indianapolis Center
05:17AM 39.2614 -82.7053 167° South 216 249 9,100  Climbing Indianapolis Center
05:18AM 39.2031 -82.6850 165° South 214 246 9,000 -60 Descending Indianapolis Center
05:19AM 39.1469 -82.6667 166° South 214 246 9,000  Level Indianapolis Center
05:20AM 39.0878 -82.6472 166° South 218 251 9,000  Level Indianapolis Center
05:21AM 39.0289 -82.6292 167° South 219 252 9,100  Climbing Indianapolis Center
05:22AM 38.9708 -82.6069 163° South 217 250 9,000 -60 Descending Indianapolis Center
05:23AM 38.9108 -82.5892 167° South 220 253 9,000  Level Indianapolis Center
05:24AM 38.8511 -82.5706 166° South 221 254 9,000  Level Indianapolis Center
05:25AM 38.7919 -82.5539 168° South 219 252 9,000  Level Indianapolis Center
05:26AM 38.7347 -82.5344 165° South 213 245 9,000  Level Indianapolis Center
05:27AM 38.6772 -82.5161 166° South 213 245 9,000  Level Indianapolis Center
05:28AM 38.6117 -82.4961 167° South 211 243 9,000  Level Indianapolis Center
05:29AM 38.5608 -82.4794 166° South 217 250 9,000  Level Indianapolis Center
05:30AM 38.5019 -82.4611 166° South 218 251 9,000  Level Indianapolis Center
05:31AM 38.4428 -82.4417 166° South 218 251 9,000  Level Indianapolis Center
05:32AM 38.3733 -82.4197 166° South 214 246 9,000  Level Indianapolis Center
05:33AM 38.3158 -82.4033 167° South 213 245 9,000  Level Indianapolis Center
05:34AM 38.2569 -82.3839 165° South 217 250 9,000  Level Indianapolis Center
05:35AM 38.1983 -82.3644 165° South 216 249 9,000  Level Indianapolis Center
05:36AM 38.1450 -82.3356 157° South 212 244 9,000  Level Indianapolis Center
05:37AM 38.0989 -82.2908 143° Southeast 214 246 9,100  Climbing Indianapolis Center
05:38AM 38.0475 -82.2511 149° Southeast 212 244 9,100  Level Indianapolis Center
05:39AM 37.9933 -82.2158 153° Southeast 217 250 9,100  Level Indianapolis Center
05:40AM 37.9400 -82.1814 153° Southeast 215 247 9,100 -60 Level Indianapolis Center
05:41AM 37.8811 -82.1567 162° South 220 253 9,000  Descending Indianapolis Center
05:42AM 37.8228 -82.1364 165° South 219 252 9,100  Climbing Indianapolis Center
05:43AM 37.7636 -82.1214 169° South 217 250 9,100  Level Indianapolis Center
05:44AM 37.7039 -82.1061 169° South 217 250 9,100  Level Indianapolis Center
05:45AM 37.6453 -82.0911 169° South 215 247 9,100  Level Indianapolis Center
05:46AM 37.5864 -82.0750 168° South 215 247 9,100  Level Indianapolis Center
05:47AM 37.5281 -82.0617 170° South 213 245 9,200  Climbing Indianapolis Center
05:48AM 37.4583 -82.0422 168° South 217 250 9,100 -60 Descending Indianapolis Center
05:49AM 37.3981 -82.0283 170° South 218 251 9,100  Level Indianapolis Center
05:50AM 37.3383 -82.0131 169° South 218 251 9,200 -120 Climbing Indianapolis Center
05:51AM 37.2786 -81.9978 168° South 219 252 8,900 -120 Descending Indianapolis Center
05:52AM 37.2169 -81.9828 169° South 222 255 9,000  Climbing Indianapolis Center
05:53AM 37.1569 -81.9694 170° South 220 253 9,000  Level Indianapolis Center
05:54AM 37.0983 -81.9544 168° South 216 249 9,000  Level Indianapolis Center
05:55AM 37.0389 -81.9400 169° South 216 249 9,000  Level Indianapolis Center
05:56AM 36.9792 -81.9256 169° South 217 250 9,000  Level Indianapolis Center
05:57AM 36.9214 -81.9103 168° South 213 245 9,000  Level Indianapolis Center
05:58AM 36.8625 -81.8964 169° South 214 246 9,000  Level Indianapolis Center
05:59AM 36.8047 -81.8814 168° South 211 243 9,000  Level Indianapolis Center
06:00AM 36.7753 -81.8747 170° South 219 252 9,000  Level Atlanta Center
06:01AM 36.7167 -81.8608 169° South 219 252 9,000  Level Atlanta Center
06:02AM 36.6581 -81.8469 169° South 219 252 9,000  Level Atlanta Center
06:03AM 36.6017 -81.8331 169° South 219 252 9,000  Level Atlanta Center
06:04AM 36.5428 -81.8192 169° South 219 252 9,000  Level Atlanta Center
06:05AM 36.4906 -81.8025 166° South 219 252 9,000  Level Atlanta Center
06:06AM 36.4319 -81.7886 169° South 219 252 9,000  Level Atlanta Center
06:07AM 36.3711 -81.7747 170° South 219 252 9,000  Level Atlanta Center
06:08AM 36.3061 -81.7611 170° South 219 252 9,000  Level Atlanta Center
06:09AM 36.2453 -81.7422 166° South 219 252 9,000  Level Atlanta Center
06:10AM 36.1847 -81.7286 170° South 219 252 9,000  Level Atlanta Center
06:11AM 36.1239 -81.7122 168° South 219 252 9,000  Level Atlanta Center
06:12AM 36.0589 -81.6989 171° South 219 252 9,000  Level Atlanta Center
06:13AM 35.9981 -81.6853 170° South 219 252 9,000  Level Atlanta Center
06:14AM 35.9372 -81.6689 168° South 219 252 9,000  Level Atlanta Center
06:15AM 35.8808 -81.6553 169° South 219 252 9,000  Level Atlanta Center
06:15AM 35.8472 -81.6486 171° South 216 249 9,000  Level Atlanta Center
06:16AM 35.8200 -81.6392 164° South 219 252 9,000  Level Atlanta Center
06:16AM 35.7803 -81.6300 169° South 220 253 9,000  Level Atlanta Center
06:17AM 35.7614 -81.6256 169° South 219 252 9,000  Level Atlanta Center
06:17AM 35.7236 -81.6164 169° South 218 251 9,000  Level Atlanta Center
06:18AM 35.7006 -81.6094 166° South 219 252 9,000  Level Atlanta Center
06:19AM 35.6544 -81.6006 171° South 219 252 9,000  Level Atlanta Center
06:20AM 35.5997 -81.5742 159° South 220 253 9,000  Level Atlanta Center
06:21AM 35.5750 -81.4983 112° Southeast 209 241 9,000 -420 Level Atlanta Center
06:22AM 35.5611 -81.4322 104° East 235 270 8,200 -1,020 Descending Atlanta Center
06:23AM 35.5450 -81.3589 105° East 242 278 7,300 -960 Descending Atlanta Center
06:23AM 35.5406 -81.3436 110° East 235 270 7,100 -420 Descending Atlanta Center
06:24AM 35.5267 -81.2778 105° East 229 264 6,900 -240 Descending Atlanta Center
06:24AM 35.5242 -81.2675 107° East 235 270 6,900 -840 Level Atlanta Center
06:25AM 35.5039 -81.2019 111° Southeast 222 255 6,000 -960 Descending Atlanta Center
06:26AM 35.4772 -81.1264 113° Southeast 239 275 5,200 -840 Descending Atlanta Center
06:27AM 35.4506 -81.0611 117° Southeast 228 262 4,400 -720 Descending Atlanta Center
06:28AM 35.4033 -81.0067 137° Southeast 211 243 3,800 -600 Descending Atlanta Center
06:29AM 35.3547 -80.9778 154° Southeast 190 219 3,300 -600 Descending Atlanta Center
06:30AM 35.3042 -80.9594 164° South 183 211 2,700 -840 Descending Atlanta Center
06:31AM 35.2561 -80.9586 179° South 162 186 1,700 -1,020 Descending Atlanta Center
06:33AM 35.2137 -80.9491 141° Southeast  Level Estimated
06:40AM 35.2137 -80.9491 141° Southeast  Level Estimated